Time;durP1;ratioP1;P1;durP2;ratioP2;P2;SDS_P1;SDS_P2;PMS_P1;PMS_P2;Temp;Humidity;BMP_temperature;BMP_pressure;BME280_temperature;BME280_humidity;BME280_pressure;Samples;Min_cycle;Max_cycle;Signal;HPM_P1;HPM_P2
2023/11/04 00:00:00;;;;;;;7.63;3.50;;;;;;;;;;5042363;28;20079;-60
2023/11/04 00:02:27;;;;;;;6.63;3.45;;;;;;;;;;5041342;28;20036;-60
2023/11/04 00:04:55;;;;;;;9.25;3.92;;;;;;;;;;5042542;28;20090;-60
2023/11/04 00:07:21;;;;;;;7.15;3.80;;;;;;;;;;5042146;28;20060;-60
2023/11/04 00:09:47;;;;;;;6.68;3.67;;;;;;;;;;5042896;28;20079;-60
2023/11/04 00:12:14;;;;;;;8.32;4.05;;;;;;;;;;5041190;28;20048;-60
2023/11/04 00:14:40;;;;;;;7.70;3.95;;;;;;;;;;5041485;28;20131;-60
2023/11/04 00:17:06;;;;;;;5.93;3.22;;;;;;;;;;5043615;28;20045;-60
2023/11/04 00:19:33;;;;;;;6.30;3.38;;;;;;;;;;5041620;28;20037;-60
2023/11/04 00:22:00;;;;;;;9.02;3.33;;;;;;;;;;5041784;28;20048;-60
2023/11/04 00:24:26;;;;;;;8.30;2.92;;;;;;;;;;5041529;28;20056;-60
2023/11/04 00:26:52;;;;;;;5.43;3.17;;;;;;;;;;5040201;28;20135;-60
2023/11/04 00:29:18;;;;;;;6.20;3.05;;;;;;;;;;5041451;28;20378;-60
2023/11/04 00:31:44;;;;;;;5.75;3.40;;;;;;;;;;5043582;28;20506;-60
2023/11/04 00:34:11;;;;;;;6.05;3.05;;;;;;;;;;5042776;28;20108;-60
2023/11/04 00:36:37;;;;;;;6.03;3.30;;;;;;;;;;5041106;28;20102;-60
2023/11/04 00:39:03;;;;;;;7.30;3.45;;;;;;;;;;5042644;28;20060;-60
2023/11/04 00:41:30;;;;;;;5.65;3.28;;;;;;;;;;5042209;28;20044;-60
2023/11/04 00:43:56;;;;;;;10.27;3.60;;;;;;;;;;5040615;28;20167;-60
2023/11/04 00:46:23;;;;;;;6.43;3.10;;;;;;;;;;5042011;28;20397;-60
2023/11/04 00:48:50;;;;;;;6.05;3.35;;;;;;;;;;5041136;28;20045;-60
2023/11/04 00:51:16;;;;;;;6.88;3.58;;;;;;;;;;5040128;28;20041;-60
2023/11/04 00:53:43;;;;;;;6.18;3.38;;;;;;;;;;5042735;28;20068;-60
2023/11/04 00:56:09;;;;;;;7.75;3.45;;;;;;;;;;5025060;28;20041;-60
2023/11/04 00:58:35;;;;;;;8.60;3.75;;;;;;;;;;5041084;28;20487;-60
2023/11/04 01:01:01;;;;;;;5.82;2.97;;;;;;;;;;5042293;28;20037;-60
2023/11/04 01:03:27;;;;;;;6.93;3.88;;;;;;;;;;5044391;28;20049;-60
2023/11/04 01:05:54;;;;;;;10.75;3.50;;;;;;;;;;5046218;28;20145;-60
2023/11/04 01:08:20;;;;;;;6.65;3.47;;;;;;;;;;5026595;28;20110;-60
2023/11/04 01:10:47;;;;;;;7.53;3.75;;;;;;;;;;5047317;28;20090;-60
2023/11/04 01:13:14;;;;;;;6.57;3.80;;;;;;;;;;5051130;28;20693;-60
2023/11/04 01:15:40;;;;;;;6.63;3.50;;;;;;;;;;5045713;28;20172;-60
2023/11/04 01:18:07;;;;;;;7.90;3.85;;;;;;;;;;5047676;28;20033;-60
2023/11/04 01:20:33;;;;;;;7.07;3.72;;;;;;;;;;5051762;28;20052;-60
2023/11/04 01:22:59;;;;;;;15.27;4.07;;;;;;;;;;5052042;28;20119;-60
2023/11/04 01:25:25;;;;;;;5.82;3.42;;;;;;;;;;5052661;28;20036;-60
2023/11/04 01:27:51;;;;;;;5.80;3.40;;;;;;;;;;5051743;28;20167;-60
2023/11/04 01:30:18;;;;;;;8.63;3.78;;;;;;;;;;5047854;28;20370;-60
2023/11/04 01:32:44;;;;;;;5.68;3.75;;;;;;;;;;5050942;28;20050;-60
2023/11/04 01:35:10;;;;;;;6.03;3.50;;;;;;;;;;5052984;28;20041;-60
2023/11/04 01:37:36;;;;;;;6.75;3.40;;;;;;;;;;5053017;28;20095;-60
2023/11/04 01:40:07;;;;;;;6.32;3.63;;;;;;;;;;5052076;28;20044;-60
2023/11/04 01:42:33;;;;;;;5.85;3.50;;;;;;;;;;5048652;28;20036;-60
2023/11/04 01:44:59;;;;;;;9.90;3.70;;;;;;;;;;5030275;28;20468;-60
2023/11/04 01:47:26;;;;;;;6.43;3.28;;;;;;;;;;5051041;28;20051;-60
2023/11/04 01:49:52;;;;;;;6.53;3.58;;;;;;;;;;5048477;28;20132;-60
2023/11/04 01:52:18;;;;;;;4.88;3.28;;;;;;;;;;5052381;28;20041;-60
2023/11/04 01:54:45;;;;;;;5.97;3.55;;;;;;;;;;5040706;28;20072;-60
2023/11/04 01:57:11;;;;;;;8.13;3.38;;;;;;;;;;5040187;28;20048;-60
2023/11/04 01:59:37;;;;;;;6.32;3.97;;;;;;;;;;5045010;28;20049;-60
2023/11/04 02:02:06;;;;;;;6.72;4.05;;;;;;;;;;5046128;28;20416;-60
2023/11/04 02:04:32;;;;;;;11.98;4.45;;;;;;;;;;5048109;28;20103;-60
2023/11/04 02:06:58;;;;;;;7.40;3.67;;;;;;;;;;5043333;28;20048;-60
2023/11/04 02:09:24;;;;;;;5.47;3.47;;;;;;;;;;5044688;28;20037;-60
2023/11/04 02:11:53;;;;;;;9.63;4.28;;;;;;;;;;5044736;28;20519;-60
2023/11/04 02:14:19;;;;;;;6.72;3.53;;;;;;;;;;5041532;28;20061;-60
2023/11/04 02:16:48;;;;;;;7.07;4.25;;;;;;;;;;5044218;28;20489;-60
2023/11/04 02:19:14;;;;;;;7.95;4.35;;;;;;;;;;5050246;28;20049;-60
2023/11/04 02:21:40;;;;;;;8.50;4.75;;;;;;;;;;5048640;28;20117;-60
2023/11/04 02:24:07;;;;;;;7.68;5.22;;;;;;;;;;5043916;28;20863;-60
2023/11/04 02:26:33;;;;;;;8.45;4.80;;;;;;;;;;5044231;28;20029;-60
2023/11/04 02:28:59;;;;;;;9.20;4.80;;;;;;;;;;5042703;28;20412;-60
2023/11/04 02:31:25;;;;;;;9.60;4.68;;;;;;;;;;5042925;28;20047;-60
2023/11/04 02:33:51;;;;;;;7.72;4.95;;;;;;;;;;5043308;28;20123;-60
2023/11/04 02:36:17;;;;;;;8.85;4.50;;;;;;;;;;5042017;28;20049;-60
2023/11/04 02:38:44;;;;;;;7.70;4.28;;;;;;;;;;5024066;28;20116;-60
2023/11/04 02:41:10;;;;;;;8.98;4.63;;;;;;;;;;5045174;28;20064;-60
2023/11/04 02:43:36;;;;;;;9.68;4.45;;;;;;;;;;5042842;28;20056;-60
2023/11/04 02:46:03;;;;;;;6.90;3.90;;;;;;;;;;5042716;28;20041;-60
2023/11/04 02:48:29;;;;;;;9.15;4.18;;;;;;;;;;5043399;28;20048;-60
2023/11/04 02:50:55;;;;;;;11.48;4.43;;;;;;;;;;5044728;28;20089;-60
2023/11/04 02:53:21;;;;;;;8.20;4.13;;;;;;;;;;5028522;28;20530;-60
2023/11/04 02:55:47;;;;;;;10.80;4.78;;;;;;;;;;5032837;28;20441;-60
2023/11/04 02:58:13;;;;;;;6.57;4.78;;;;;;;;;;5047568;28;20199;-60
2023/11/04 03:00:40;;;;;;;10.02;4.70;;;;;;;;;;5044660;28;20048;-60
2023/11/04 03:03:07;;;;;;;7.72;4.30;;;;;;;;;;5049876;28;20077;-60
2023/11/04 03:05:33;;;;;;;13.30;5.18;;;;;;;;;;5049226;28;20390;-60
2023/11/04 03:08:00;;;;;;;7.78;5.15;;;;;;;;;;5047387;28;20041;-60
2023/11/04 03:10:26;;;;;;;13.30;4.88;;;;;;;;;;5047394;28;20401;-60
2023/11/04 03:12:52;;;;;;;13.82;5.15;;;;;;;;;;5049907;28;20044;-60
2023/11/04 03:15:20;;;;;;;9.38;5.07;;;;;;;;;;5049868;28;20037;-60
2023/11/04 03:17:46;;;;;;;11.18;4.85;;;;;;;;;;5024548;28;20054;-60
2023/11/04 03:20:12;;;;;;;10.45;5.50;;;;;;;;;;5046911;28;20493;-60
2023/11/04 03:22:39;;;;;;;8.60;5.40;;;;;;;;;;5044698;28;20045;-60
2023/11/04 03:25:05;;;;;;;9.43;5.40;;;;;;;;;;5030728;28;20536;-60
2023/11/04 03:27:31;;;;;;;9.43;5.85;;;;;;;;;;5049835;28;20415;-60
2023/11/04 03:29:57;;;;;;;11.70;6.22;;;;;;;;;;5045325;28;20045;-60
2023/11/04 03:32:23;;;;;;;9.70;6.20;;;;;;;;;;5048633;28;20045;-60
2023/11/04 03:34:50;;;;;;;9.25;5.75;;;;;;;;;;5048536;28;20124;-60
2023/11/04 03:37:16;;;;;;;9.60;5.93;;;;;;;;;;5041144;28;20472;-60
2023/11/04 03:39:42;;;;;;;9.68;5.90;;;;;;;;;;5029340;28;20465;-60
2023/11/04 03:42:08;;;;;;;9.18;6.03;;;;;;;;;;5029974;28;20404;-60
2023/11/04 03:44:34;;;;;;;10.15;6.03;;;;;;;;;;5048144;28;20055;-60
2023/11/04 03:47:01;;;;;;;10.52;5.93;;;;;;;;;;5049667;28;20073;-60
2023/11/04 03:49:27;;;;;;;8.00;5.40;;;;;;;;;;5048160;28;20178;-60
2023/11/04 03:51:54;;;;;;;13.45;6.07;;;;;;;;;;5049026;28;20218;-60
2023/11/04 03:54:20;;;;;;;10.10;6.00;;;;;;;;;;5048893;28;20492;-60
2023/11/04 03:56:46;;;;;;;13.93;5.80;;;;;;;;;;5048595;28;20378;-60
2023/11/04 03:59:13;;;;;;;7.63;4.95;;;;;;;;;;5048238;28;20041;-60
2023/11/04 04:01:40;;;;;;;10.90;5.63;;;;;;;;;;5046491;28;20037;-60
2023/11/04 04:04:07;;;;;;;8.27;6.07;;;;;;;;;;5046922;28;20102;-60
2023/11/04 04:06:33;;;;;;;8.63;5.75;;;;;;;;;;5046115;28;20036;-60
2023/11/04 04:08:59;;;;;;;8.23;5.55;;;;;;;;;;5043085;28;20040;-60
2023/11/04 04:11:26;;;;;;;7.50;5.00;;;;;;;;;;5041694;28;20171;-60
2023/11/04 04:13:52;;;;;;;11.43;5.25;;;;;;;;;;5042387;28;20396;-60
2023/11/04 04:16:18;;;;;;;14.77;5.57;;;;;;;;;;5043321;28;20033;-60
2023/11/04 04:18:45;;;;;;;9.07;5.65;;;;;;;;;;5021927;28;20049;-60
2023/11/04 04:21:14;;;;;;;11.32;5.95;;;;;;;;;;5044969;28;20048;-60
2023/11/04 04:23:41;;;;;;;12.73;5.78;;;;;;;;;;5041727;28;20045;-60
2023/11/04 04:26:07;;;;;;;10.45;5.82;;;;;;;;;;5041261;28;20116;-60
2023/11/04 04:28:33;;;;;;;14.65;5.47;;;;;;;;;;5041488;28;20064;-60
2023/11/04 04:31:00;;;;;;;9.88;5.50;;;;;;;;;;5041424;28;20196;-60
2023/11/04 04:33:26;;;;;;;9.77;6.20;;;;;;;;;;5043299;28;20044;-60
2023/11/04 04:35:52;;;;;;;8.88;5.95;;;;;;;;;;5042274;28;20130;-60
2023/11/04 04:38:18;;;;;;;10.98;5.72;;;;;;;;;;5045707;28;20168;-60
2023/11/04 04:40:44;;;;;;;13.23;5.72;;;;;;;;;;5048000;28;20544;-60
2023/11/04 04:43:10;;;;;;;8.20;6.05;;;;;;;;;;5044948;28;20383;-60
2023/11/04 04:45:37;;;;;;;12.45;6.80;;;;;;;;;;5044918;28;20085;-60
2023/11/04 04:48:03;;;;;;;10.50;6.85;;;;;;;;;;5043961;28;20051;-60
2023/11/04 04:50:29;;;;;;;10.25;6.63;;;;;;;;;;5045610;28;20497;-60
2023/11/04 04:52:55;;;;;;;10.82;6.45;;;;;;;;;;5045906;28;20048;-60
2023/11/04 04:55:22;;;;;;;13.43;7.28;;;;;;;;;;5046958;28;20048;-60
2023/11/04 04:57:48;;;;;;;10.05;6.75;;;;;;;;;;5025744;28;20174;-60
2023/11/04 05:00:15;;;;;;;12.73;6.97;;;;;;;;;;5045716;28;20521;-60
2023/11/04 05:02:42;;;;;;;10.07;6.82;;;;;;;;;;5044656;28;20055;-60
2023/11/04 05:05:11;;;;;;;11.73;6.88;;;;;;;;;;5048588;28;20094;-60
2023/11/04 05:07:37;;;;;;;10.00;7.28;;;;;;;;;;5042028;28;20490;-60
2023/11/04 05:10:05;;;;;;;12.80;7.80;;;;;;;;;;5045022;28;20043;-60
2023/11/04 05:12:31;;;;;;;15.90;7.78;;;;;;;;;;5050887;28;20121;-60
2023/11/04 05:14:57;;;;;;;12.30;7.72;;;;;;;;;;5049025;28;20459;-60
2023/11/04 05:17:25;;;;;;;14.00;7.38;;;;;;;;;;5051878;28;20041;-60
2023/11/04 05:19:55;;;;;;;10.43;7.93;;;;;;;;;;5047462;28;20414;-60
2023/11/04 05:22:23;;;;;;;16.88;8.57;;;;;;;;;;5045537;28;20037;-60
2023/11/04 05:24:49;;;;;;;11.25;7.90;;;;;;;;;;5051540;28;20072;-60
2023/11/04 05:27:16;;;;;;;12.50;8.20;;;;;;;;;;5051628;28;20087;-60
2023/11/04 05:29:43;;;;;;;14.70;8.30;;;;;;;;;;5048539;28;20447;-60
2023/11/04 05:32:09;;;;;;;12.85;8.82;;;;;;;;;;5046384;28;20109;-60
2023/11/04 05:34:35;;;;;;;11.70;8.90;;;;;;;;;;5043850;28;20071;-60
2023/11/04 05:37:01;;;;;;;13.55;9.02;;;;;;;;;;5049323;28;20151;-60
2023/11/04 05:39:27;;;;;;;11.82;8.27;;;;;;;;;;5051393;28;20061;-60
2023/11/04 05:41:53;;;;;;;15.27;8.55;;;;;;;;;;5046731;28;20074;-60
2023/11/04 05:44:23;;;;;;;12.23;8.73;;;;;;;;;;5048155;28;20043;-60
2023/11/04 05:46:49;;;;;;;15.63;9.52;;;;;;;;;;5046537;28;20045;-60
2023/11/04 05:49:15;;;;;;;14.93;9.65;;;;;;;;;;5050950;28;20489;-60
2023/11/04 05:51:42;;;;;;;13.63;9.90;;;;;;;;;;5049880;28;20439;-60
2023/11/04 05:54:11;;;;;;;16.77;8.93;;;;;;;;;;5054041;28;20033;-60
2023/11/04 05:56:38;;;;;;;16.52;9.27;;;;;;;;;;5048794;28;20060;-60
2023/11/04 05:59:04;;;;;;;15.38;9.48;;;;;;;;;;5048785;28;20400;-60
2023/11/04 06:01:30;;;;;;;14.32;9.30;;;;;;;;;;5063642;28;20074;-60
2023/11/04 06:03:57;;;;;;;17.35;10.82;;;;;;;;;;5046920;28;20041;-60
2023/11/04 06:06:23;;;;;;;21.13;9.95;;;;;;;;;;5048973;28;20508;-60
2023/11/04 06:08:49;;;;;;;16.13;9.10;;;;;;;;;;5050338;28;20535;-60
2023/11/04 06:11:16;;;;;;;12.52;8.68;;;;;;;;;;5033667;28;20086;-60
2023/11/04 06:13:44;;;;;;;12.38;8.80;;;;;;;;;;5050325;28;20175;-60
2023/11/04 06:16:11;;;;;;;16.48;10.70;;;;;;;;;;5050191;28;20402;-60
2023/11/04 06:18:37;;;;;;;16.02;9.43;;;;;;;;;;5050268;28;20048;-60
2023/11/04 06:21:04;;;;;;;12.15;9.15;;;;;;;;;;5049046;28;20165;-60
2023/11/04 06:23:30;;;;;;;15.93;9.65;;;;;;;;;;5045836;28;20444;-60
2023/11/04 06:25:57;;;;;;;14.30;9.48;;;;;;;;;;5048358;28;20080;-60
2023/11/04 06:28:23;;;;;;;17.83;9.20;;;;;;;;;;5004893;28;1228154;-60
2023/11/04 06:30:49;;;;;;;13.13;9.02;;;;;;;;;;5050376;28;20049;-60
2023/11/04 06:33:15;;;;;;;17.05;9.38;;;;;;;;;;5051117;28;20124;-60
2023/11/04 06:35:41;;;;;;;12.25;8.70;;;;;;;;;;5041331;28;20060;-60
2023/11/04 06:38:08;;;;;;;14.20;8.32;;;;;;;;;;5051873;28;20041;-60
2023/11/04 06:40:35;;;;;;;11.77;9.30;;;;;;;;;;5051399;28;20120;-60
2023/11/04 06:43:01;;;;;;;15.57;9.77;;;;;;;;;;5051496;28;20119;-60
2023/11/04 06:45:28;;;;;;;12.63;8.98;;;;;;;;;;5045325;28;20078;-60
2023/11/04 06:47:55;;;;;;;14.45;9.77;;;;;;;;;;5049308;28;20044;-60
2023/11/04 06:50:22;;;;;;;15.55;9.35;;;;;;;;;;5049755;28;20099;-60
2023/11/04 06:52:48;;;;;;;16.38;9.73;;;;;;;;;;5051862;28;20120;-60
2023/11/04 06:55:14;;;;;;;19.00;9.40;;;;;;;;;;5050877;28;20174;-60
2023/11/04 06:57:40;;;;;;;17.77;9.13;;;;;;;;;;5049888;28;20033;-61
2023/11/04 07:00:08;;;;;;;17.48;9.15;;;;;;;;;;5047791;28;20037;-60
2023/11/04 07:02:34;;;;;;;15.57;9.57;;;;;;;;;;5046991;28;20582;-60
2023/11/04 07:05:01;;;;;;;12.65;9.20;;;;;;;;;;5048183;28;20044;-60
2023/11/04 07:07:28;;;;;;;11.85;8.93;;;;;;;;;;5049359;28;20203;-60
2023/11/04 07:09:55;;;;;;;12.00;9.38;;;;;;;;;;5044929;28;20048;-60
2023/11/04 07:12:21;;;;;;;16.33;8.95;;;;;;;;;;5051555;28;20041;-60
2023/11/04 07:14:47;;;;;;;14.50;9.57;;;;;;;;;;5050993;28;20511;-60
2023/11/04 07:17:14;;;;;;;16.58;9.60;;;;;;;;;;5050378;28;20494;-60
2023/11/04 07:19:40;;;;;;;15.23;9.52;;;;;;;;;;5035611;28;20489;-60
2023/11/04 07:22:06;;;;;;;13.52;9.32;;;;;;;;;;5051445;28;20059;-60
2023/11/04 07:24:35;;;;;;;12.32;9.13;;;;;;;;;;5049987;28;20048;-60
2023/11/04 07:27:01;;;;;;;15.57;9.13;;;;;;;;;;5050501;28;20116;-60
2023/11/04 07:29:28;;;;;;;15.40;9.15;;;;;;;;;;5050793;28;20049;-60
2023/11/04 07:31:54;;;;;;;14.32;10.18;;;;;;;;;;5050712;28;20051;-60
2023/11/04 07:34:20;;;;;;;17.48;8.70;;;;;;;;;;5051069;28;20116;-60
2023/11/04 07:36:46;;;;;;;15.65;10.13;;;;;;;;;;5050106;28;20515;-60
2023/11/04 07:39:13;;;;;;;14.48;8.65;;;;;;;;;;5047768;28;20041;-60
2023/11/04 07:41:40;;;;;;;14.93;8.63;;;;;;;;;;5043625;28;20037;-60
2023/11/04 07:44:06;;;;;;;14.57;8.20;;;;;;;;;;5048866;28;20041;-60
2023/11/04 07:46:33;;;;;;;11.10;8.52;;;;;;;;;;5049598;28;20068;-60
2023/11/04 07:48:59;;;;;;;15.00;8.80;;;;;;;;;;5050799;28;20041;-60
2023/11/04 07:51:25;;;;;;;16.83;9.45;;;;;;;;;;5049407;28;20040;-60
2023/11/04 07:53:52;;;;;;;13.98;8.93;;;;;;;;;;5047556;28;20053;-60
2023/11/04 07:56:18;;;;;;;15.02;8.65;;;;;;;;;;5050700;28;20033;-60
2023/11/04 07:58:44;;;;;;;18.25;8.07;;;;;;;;;;5050129;28;20378;-60
2023/11/04 08:01:11;;;;;;;11.18;7.30;;;;;;;;;;5049177;28;20599;-60
2023/11/04 08:03:37;;;;;;;10.15;7.50;;;;;;;;;;5049690;28;20102;-60
2023/11/04 08:06:04;;;;;;;10.57;7.28;;;;;;;;;;5050354;28;20056;-60
2023/11/04 08:08:30;;;;;;;10.02;7.10;;;;;;;;;;5049830;28;20582;-60
2023/11/04 08:10:57;;;;;;;10.10;7.80;;;;;;;;;;5050114;28;20037;-60
2023/11/04 08:13:24;;;;;;;10.18;6.75;;;;;;;;;;5048656;28;20484;-60
2023/11/04 08:15:50;;;;;;;9.82;6.68;;;;;;;;;;5050760;28;20079;-60
2023/11/04 08:18:16;;;;;;;12.00;6.75;;;;;;;;;;5050466;28;20076;-60
2023/11/04 08:20:43;;;;;;;11.75;6.68;;;;;;;;;;5049959;28;20120;-60
2023/11/04 08:23:09;;;;;;;9.98;6.07;;;;;;;;;;5047792;28;20112;-66
2023/11/04 08:25:36;;;;;;;11.80;5.60;;;;;;;;;;5031764;28;20148;-60
2023/11/04 08:28:02;;;;;;;16.83;7.72;;;;;;;;;;5049950;28;20048;-60
2023/11/04 08:30:28;;;;;;;13.85;6.07;;;;;;;;;;5050393;28;20122;-60
2023/11/04 08:32:55;;;;;;;12.65;5.95;;;;;;;;;;5048303;28;20060;-60
2023/11/04 08:35:21;;;;;;;8.98;5.40;;;;;;;;;;5045231;28;20052;-60
2023/11/04 08:37:48;;;;;;;11.32;5.57;;;;;;;;;;5049180;28;20041;-60
2023/11/04 08:40:14;;;;;;;13.25;5.18;;;;;;;;;;5049534;28;20045;-60
2023/11/04 08:42:40;;;;;;;10.68;5.38;;;;;;;;;;5047273;28;20056;-60
2023/11/04 08:45:11;;;;;;;10.60;4.57;;;;;;;;;;5050009;28;20160;-60
2023/11/04 08:47:37;;;;;;;10.50;5.20;;;;;;;;;;5032582;28;20045;-60
2023/11/04 08:50:03;;;;;;;9.98;5.10;;;;;;;;;;5049780;28;20060;-60
2023/11/04 08:52:29;;;;;;;10.43;5.30;;;;;;;;;;5049167;28;20112;-60
2023/11/04 08:54:56;;;;;;;11.88;5.05;;;;;;;;;;5048800;28;20069;-60
2023/11/04 08:57:23;;;;;;;12.82;5.15;;;;;;;;;;5050459;28;20491;-60
2023/11/04 08:59:49;;;;;;;11.00;4.82;;;;;;;;;;5049890;28;20053;-60
2023/11/04 09:02:15;;;;;;;9.20;4.80;;;;;;;;;;5046378;28;20037;-60
2023/11/04 09:04:43;;;;;;;9.27;4.88;;;;;;;;;;5049066;28;20065;-60
2023/11/04 09:07:09;;;;;;;14.25;4.82;;;;;;;;;;5049869;28;20099;-60
2023/11/04 09:09:35;;;;;;;11.02;4.35;;;;;;;;;;5047696;28;20049;-61
2023/11/04 09:12:01;;;;;;;6.28;3.75;;;;;;;;;;5047062;28;20069;-60
2023/11/04 09:14:27;;;;;;;9.30;4.63;;;;;;;;;;5049977;28;20053;-60
2023/11/04 09:16:54;;;;;;;12.32;4.00;;;;;;;;;;5047874;28;20477;-60
2023/11/04 09:19:20;;;;;;;9.30;4.18;;;;;;;;;;5049697;28;20398;-60
2023/11/04 09:21:46;;;;;;;10.75;4.25;;;;;;;;;;5048012;28;20048;-60
2023/11/04 09:24:13;;;;;;;10.93;4.50;;;;;;;;;;5051417;28;20080;-60
2023/11/04 09:26:39;;;;;;;8.35;3.78;;;;;;;;;;5052522;28;20053;-60
2023/11/04 09:29:05;;;;;;;11.38;4.43;;;;;;;;;;5051068;28;20098;-60
2023/11/04 09:31:32;;;;;;;9.45;3.80;;;;;;;;;;5052799;28;20146;-60
2023/11/04 09:33:58;;;;;;;9.95;3.85;;;;;;;;;;5053215;28;20048;-60
2023/11/04 09:36:26;;;;;;;8.77;3.95;;;;;;;;;;5053382;28;20119;-60
2023/11/04 09:38:52;;;;;;;11.10;3.47;;;;;;;;;;5050350;28;20481;-60
2023/11/04 09:41:19;;;;;;;12.80;4.13;;;;;;;;;;5051430;28;20045;-60
2023/11/04 09:43:46;;;;;;;9.32;4.03;;;;;;;;;;5053262;28;20056;-61
2023/11/04 09:46:12;;;;;;;11.35;4.50;;;;;;;;;;5052783;28;20045;-60
2023/11/04 09:48:38;;;;;;;9.50;4.00;;;;;;;;;;5052985;28;20041;-60
2023/11/04 09:51:08;;;;;;;11.80;4.13;;;;;;;;;;5052635;28;20045;-60
2023/11/04 09:53:38;;;;;;;9.35;3.63;;;;;;;;;;5051621;28;20040;-60
2023/11/04 09:56:06;;;;;;;10.65;3.85;;;;;;;;;;5053164;28;20053;-60
2023/11/04 09:58:34;;;;;;;10.88;4.13;;;;;;;;;;5052349;28;20135;-60
2023/11/04 10:01:00;;;;;;;11.15;4.53;;;;;;;;;;5052782;28;20041;-60
2023/11/04 10:03:27;;;;;;;8.23;3.40;;;;;;;;;;5052749;28;20045;-60
2023/11/04 10:05:54;;;;;;;10.98;4.13;;;;;;;;;;5038366;28;20044;-60
2023/11/04 10:08:20;;;;;;;10.38;3.78;;;;;;;;;;5052121;28;20083;-61
2023/11/04 10:10:47;;;;;;;8.07;3.30;;;;;;;;;;5050603;28;20083;-60
2023/11/04 10:13:13;;;;;;;13.93;4.68;;;;;;;;;;5052238;28;20041;-60
2023/11/04 10:15:39;;;;;;;9.23;3.38;;;;;;;;;;5047918;28;20055;-60
2023/11/04 10:18:06;;;;;;;10.07;4.55;;;;;;;;;;5052520;28;20036;-60
2023/11/04 10:20:32;;;;;;;11.52;3.22;;;;;;;;;;5052088;28;20045;-60
2023/11/04 10:22:58;;;;;;;9.88;2.97;;;;;;;;;;5051512;28;20455;-60
2023/11/04 10:25:26;;;;;;;11.85;3.55;;;;;;;;;;5052743;28;20071;-61
2023/11/04 10:27:52;;;;;;;9.70;4.25;;;;;;;;;;5051857;28;20136;-60
2023/11/04 10:30:18;;;;;;;10.70;2.78;;;;;;;;;;5052243;28;20082;-60
2023/11/04 10:32:49;;;;;;;7.63;2.38;;;;;;;;;;5051645;28;20049;-60
2023/11/04 10:35:19;;;;;;;6.38;1.92;;;;;;;;;;5050344;28;20040;-60
2023/11/04 10:37:50;;;;;;;8.32;2.40;;;;;;;;;;5051097;28;20060;-60
2023/11/04 10:40:17;;;;;;;9.77;2.33;;;;;;;;;;5052098;28;20041;-60
2023/11/04 10:42:48;;;;;;;9.95;2.53;;;;;;;;;;5052202;28;20164;-60
2023/11/04 10:45:41;;;;;;;8.65;2.20;;;;;;;;;;5051100;28;20049;-60
2023/11/04 10:48:27;;;;;;;12.32;3.00;;;;;;;;;;5049795;28;20531;-60
2023/11/04 10:50:56;;;;;;;8.43;2.30;;;;;;;;;;5043669;28;20434;-60
2023/11/04 10:53:28;;;;;;;9.68;2.53;;;;;;;;;;5051936;28;20048;-60
2023/11/04 10:56:06;;;;;;;10.38;2.15;;;;;;;;;;5051401;28;20635;-60
2023/11/04 10:58:37;;;;;;;11.80;3.00;;;;;;;;;;5033624;28;20049;-60
2023/11/04 11:01:04;;;;;;;7.45;1.80;;;;;;;;;;5052007;28;20045;-60
2023/11/04 11:03:31;;;;;;;12.20;1.98;;;;;;;;;;5051140;28;20115;-60
2023/11/04 11:05:58;;;;;;;11.93;2.33;;;;;;;;;;5050609;28;20064;-61
2023/11/04 11:08:25;;;;;;;10.63;2.58;;;;;;;;;;5050848;28;20051;-60
2023/11/04 11:10:59;;;;;;;7.35;2.30;;;;;;;;;;5051466;28;20511;-61
2023/11/04 11:13:29;;;;;;;7.05;2.00;;;;;;;;;;5051580;28;20107;-60
2023/11/04 11:15:58;;;;;;;10.40;2.30;;;;;;;;;;5046991;28;20044;-61
2023/11/04 11:18:27;;;;;;;13.20;4.80;;;;;;;;;;5048445;28;20041;-60
2023/11/04 11:20:53;;;;;;;11.27;1.90;;;;;;;;;;5029522;28;20532;-61
2023/11/04 11:23:28;;;;;;;15.20;2.38;;;;;;;;;;5045654;28;20162;-60
2023/11/04 11:26:03;;;;;;;8.77;2.03;;;;;;;;;;5040702;28;20057;-66
2023/11/04 11:28:35;;;;;;;7.05;1.92;;;;;;;;;;5049646;28;20041;-60
2023/11/04 11:31:01;;;;;;;10.40;1.90;;;;;;;;;;5044396;28;20107;-60
2023/11/04 11:33:28;;;;;;;9.35;2.63;;;;;;;;;;5045313;28;20037;-60
2023/11/04 11:36:02;;;;;;;8.10;1.70;;;;;;;;;;5045960;28;20039;-61
2023/11/04 11:38:29;;;;;;;9.57;2.08;;;;;;;;;;5046347;28;20350;-60
2023/11/04 11:40:56;;;;;;;11.32;2.42;;;;;;;;;;5049869;28;20413;-60
2023/11/04 11:43:22;;;;;;;12.63;3.17;;;;;;;;;;5050117;28;20564;-60
2023/11/04 11:45:49;;;;;;;5.63;1.75;;;;;;;;;;5049232;28;20041;-60
2023/11/04 11:48:15;;;;;;;7.32;1.80;;;;;;;;;;5050253;28;20051;-60
2023/11/04 11:50:42;;;;;;;7.95;2.03;;;;;;;;;;5049601;28;20033;-61
2023/11/04 11:53:10;;;;;;;10.30;2.10;;;;;;;;;;5050444;28;20076;-61
2023/11/04 11:55:36;;;;;;;9.55;2.20;;;;;;;;;;5050041;28;20361;-60
2023/11/04 11:58:02;;;;;;;5.90;1.60;;;;;;;;;;5046824;28;20345;-61
2023/11/04 12:00:28;;;;;;;4.82;1.33;;;;;;;;;;5044700;28;20094;-62
2023/11/04 12:02:54;;;;;;;6.28;1.40;;;;;;;;;;5048233;28;20048;-60
2023/11/04 12:05:21;;;;;;;5.53;1.85;;;;;;;;;;5050314;28;20374;-60
2023/11/04 12:07:48;;;;;;;8.07;1.83;;;;;;;;;;5047437;28;20052;-61
2023/11/04 12:10:14;;;;;;;10.77;2.50;;;;;;;;;;5047901;28;20036;-60
2023/11/04 12:12:43;;;;;;;5.22;1.45;;;;;;;;;;5049823;28;20045;-61
2023/11/04 12:15:12;;;;;;;5.68;1.33;;;;;;;;;;5044891;28;20040;-61
2023/11/04 12:17:39;;;;;;;8.65;1.58;;;;;;;;;;5049794;28;20025;-61
2023/11/04 12:20:05;;;;;;;3.40;1.40;;;;;;;;;;5049415;28;20075;-60
2023/11/04 12:22:32;;;;;;;8.40;1.50;;;;;;;;;;5049693;28;20037;-60
2023/11/04 12:24:58;;;;;;;5.25;1.48;;;;;;;;;;5045104;28;20085;-60
2023/11/04 12:27:24;;;;;;;4.47;1.33;;;;;;;;;;5039263;28;20061;-61
2023/11/04 12:29:56;;;;;;;7.95;1.30;;;;;;;;;;5042796;28;20588;-60
2023/11/04 12:32:22;;;;;;;3.50;1.30;;;;;;;;;;5048949;28;20550;-60
2023/11/04 12:34:50;;;;;;;4.57;1.38;;;;;;;;;;5045622;28;20079;-60
2023/11/04 12:37:16;;;;;;;4.88;0.95;;;;;;;;;;5043391;28;20116;-61
2023/11/04 12:39:42;;;;;;;4.38;1.15;;;;;;;;;;5043068;28;20055;-60
2023/11/04 12:42:11;;;;;;;6.78;1.13;;;;;;;;;;5049860;28;20123;-60
2023/11/04 12:44:37;;;;;;;4.35;1.13;;;;;;;;;;5049843;28;20445;-60
2023/11/04 12:47:09;;;;;;;5.22;1.15;;;;;;;;;;5046934;28;20037;-61
2023/11/04 12:49:37;;;;;;;5.03;1.08;;;;;;;;;;5047084;28;20061;-60
2023/11/04 12:52:09;;;;;;;3.60;1.20;;;;;;;;;;5048569;28;20045;-60
2023/11/04 12:54:36;;;;;;;4.43;1.48;;;;;;;;;;5046318;28;20056;-60
2023/11/04 12:57:02;;;;;;;4.18;1.00;;;;;;;;;;5048708;28;20037;-60
2023/11/04 12:59:29;;;;;;;3.47;1.10;;;;;;;;;;5050503;28;20055;-60
2023/11/04 13:01:55;;;;;;;5.38;1.20;;;;;;;;;;5045181;28;20116;-60
2023/11/04 13:04:22;;;;;;;3.72;1.20;;;;;;;;;;5036261;28;20033;-60
2023/11/04 13:06:49;;;;;;;7.38;1.70;;;;;;;;;;5048115;28;20045;-60
2023/11/04 13:09:15;;;;;;;3.63;1.13;;;;;;;;;;5047947;28;20045;-60
2023/11/04 13:11:41;;;;;;;5.65;1.13;;;;;;;;;;5048625;28;20040;-60
2023/11/04 13:14:07;;;;;;;3.95;1.10;;;;;;;;;;5049789;28;20550;-61
2023/11/04 13:16:35;;;;;;;4.20;1.05;;;;;;;;;;5052654;28;20037;-61
2023/11/04 13:19:05;;;;;;;3.55;1.00;;;;;;;;;;5053489;28;20045;-60
2023/11/04 13:21:31;;;;;;;3.50;1.10;;;;;;;;;;5052602;28;20044;-60
2023/11/04 13:23:57;;;;;;;3.97;1.00;;;;;;;;;;5051928;28;20048;-60
2023/11/04 13:26:23;;;;;;;4.50;0.93;;;;;;;;;;5049558;28;20527;-68
2023/11/04 13:28:50;;;;;;;3.85;0.90;;;;;;;;;;5051525;28;20209;-61
2023/11/04 13:31:16;;;;;;;3.78;0.98;;;;;;;;;;5048155;28;20052;-60
2023/11/04 13:33:43;;;;;;;3.28;1.00;;;;;;;;;;5049797;28;20110;-62
2023/11/04 13:36:09;;;;;;;3.47;1.30;;;;;;;;;;5049307;28;20029;-60
2023/11/04 13:38:36;;;;;;;5.22;1.20;;;;;;;;;;5040696;28;20186;-61
2023/11/04 13:41:02;;;;;;;2.38;0.98;;;;;;;;;;5053279;28;20093;-61
2023/11/04 13:43:28;;;;;;;4.00;0.90;;;;;;;;;;5052836;28;20890;-61
2023/11/04 13:45:55;;;;;;;4.60;1.50;;;;;;;;;;5053252;28;20120;-61
2023/11/04 13:48:21;;;;;;;5.18;1.10;;;;;;;;;;5031638;28;20124;-61
2023/11/04 13:50:48;;;;;;;8.75;1.10;;;;;;;;;;5051815;28;20428;-61
2023/11/04 13:53:14;;;;;;;3.10;1.15;;;;;;;;;;5052987;28;20103;-61
2023/11/04 13:55:40;;;;;;;6.78;1.10;;;;;;;;;;5053298;28;20049;-61
2023/11/04 13:58:07;;;;;;;4.70;1.10;;;;;;;;;;5051528;28;20041;-61
2023/11/04 14:00:33;;;;;;;4.38;1.52;;;;;;;;;;5052663;28;20557;-61
2023/11/04 14:02:59;;;;;;;7.03;1.40;;;;;;;;;;5051004;28;20041;-61
2023/11/04 14:05:27;;;;;;;3.80;1.30;;;;;;;;;;5051710;28;20056;-61
2023/11/04 14:07:54;;;;;;;2.83;1.20;;;;;;;;;;5052396;28;20125;-61
2023/11/04 14:10:20;;;;;;;5.82;1.50;;;;;;;;;;5047523;28;20481;-60
2023/11/04 14:12:47;;;;;;;9.15;2.47;;;;;;;;;;5048731;28;20059;-60
2023/11/04 14:15:14;;;;;;;4.72;1.48;;;;;;;;;;5047880;28;20489;-60
2023/11/04 14:17:41;;;;;;;5.40;1.55;;;;;;;;;;5051683;28;20045;-61
2023/11/04 14:20:07;;;;;;;5.13;1.48;;;;;;;;;;5051520;28;20117;-61
2023/11/04 14:22:34;;;;;;;4.05;1.45;;;;;;;;;;5052231;28;20033;-60
2023/11/04 14:25:01;;;;;;;10.82;1.92;;;;;;;;;;5048665;28;20102;-60
2023/11/04 14:27:27;;;;;;;4.30;1.58;;;;;;;;;;5051869;28;20136;-61
2023/11/04 14:29:53;;;;;;;3.38;1.70;;;;;;;;;;5052332;28;20049;-61
2023/11/04 14:32:22;;;;;;;4.03;1.63;;;;;;;;;;5051334;28;20445;-61